createdAt,value
2018-09-23T00:00:40.377Z,95199.62
2018-09-23T00:03:09.139Z,95201.63
2018-09-23T00:05:37.986Z,95200.25
2018-09-23T00:08:07.175Z,95204.53
2018-09-23T00:10:35.830Z,95199.86
2018-09-23T00:13:04.808Z,95199.34
2018-09-23T00:15:33.686Z,95191.70
2018-09-23T00:18:02.440Z,95194.20
2018-09-23T00:20:31.115Z,95183.20
2018-09-23T00:23:00.813Z,95180.59
2018-09-23T00:25:29.552Z,95178.86
2018-09-23T00:27:58.367Z,95185.42
2018-09-23T00:30:27.538Z,95176.53
2018-09-23T00:32:56.456Z,95168.87
2018-09-23T00:35:25.452Z,95162.72
2018-09-23T00:37:54.557Z,95159.02
2018-09-23T00:40:23.538Z,95162.19
2018-09-23T00:42:52.636Z,95159.31
2018-09-23T00:45:21.331Z,95161.77
2018-09-23T00:47:50.258Z,95165.20
2018-09-23T00:50:19.051Z,95166.53
2018-09-23T00:52:47.698Z,95166.28
2018-09-23T00:55:16.413Z,95170.75
2018-09-23T00:57:45.575Z,95177.40
2018-09-23T01:00:14.393Z,95176.91
2018-09-23T01:02:43.204Z,95183.98
2018-09-23T01:05:11.900Z,95185.53
2018-09-23T01:07:40.803Z,95176.30
2018-09-23T01:10:09.860Z,95181.35
2018-09-23T01:12:38.815Z,95175.28
2018-09-23T01:15:07.658Z,95176.64
2018-09-23T01:17:36.574Z,95179.80
2018-09-23T01:20:05.553Z,95185.08
2018-09-23T01:22:34.339Z,95175.05
2018-09-23T01:25:03.186Z,95172.16
2018-09-23T01:27:31.966Z,95176.12
2018-09-23T01:30:00.794Z,95174.53
2018-09-23T01:32:30.097Z,95174.52
2018-09-23T01:34:58.663Z,95179.55
2018-09-23T01:37:27.810Z,95177.69
2018-09-23T01:39:56.767Z,95185.34
2018-09-23T01:42:25.970Z,95182.95
2018-09-23T01:44:55.062Z,95180.34
2018-09-23T01:47:24.263Z,95177.42
2018-09-23T01:49:52.959Z,95167.41
2018-09-23T01:52:21.766Z,95168.19
2018-09-23T01:54:50.610Z,95169.80
2018-09-23T01:57:19.642Z,95176.61
2018-09-23T01:59:48.803Z,95168.69
2018-09-23T02:02:17.465Z,95167.39
2018-09-23T02:04:46.763Z,95171.07
2018-09-23T02:07:15.631Z,95175.02
2018-09-23T02:09:44.456Z,95176.89
2018-09-23T02:12:13.218Z,95168.99
2018-09-23T02:14:42.250Z,95167.16
2018-09-23T02:17:11.055Z,95173.75
2018-09-23T02:19:40.172Z,95176.92
2018-09-23T02:22:08.813Z,95172.69
2018-09-23T02:24:37.639Z,95171.39
2018-09-23T02:27:06.782Z,95176.38
2018-09-23T02:29:35.672Z,95174.27
2018-09-23T02:32:04.621Z,95177.69
2018-09-23T02:34:33.622Z,95184.28
2018-09-23T02:37:02.567Z,95191.11
2018-09-23T02:39:31.381Z,95190.59
2018-09-23T02:42:00.395Z,95191.66
2018-09-23T02:44:29.349Z,95186.13
2018-09-23T02:46:58.194Z,95193.78
2018-09-23T02:49:27.031Z,95184.55
2018-09-23T02:51:55.959Z,95183.77
2018-09-23T02:54:24.715Z,95183.52
2018-09-23T02:56:53.858Z,95178.23
2018-09-23T02:59:22.647Z,95181.11
2018-09-23T03:01:51.652Z,95182.97
2018-09-23T03:04:20.589Z,95184.56
2018-09-23T03:06:49.182Z,95190.36
2018-09-23T03:09:18.407Z,95186.91
2018-09-23T03:11:47.157Z,95191.66
2018-09-23T03:14:16.064Z,95191.92
2018-09-23T03:16:44.977Z,95194.03
2018-09-23T03:19:13.990Z,95196.42
2018-09-23T03:21:42.619Z,95193.52
2018-09-23T03:24:11.583Z,95191.13
2018-09-23T03:26:40.223Z,95191.92
2018-09-23T03:29:09.043Z,95193.23
2018-09-23T03:31:38.023Z,95188.24
2018-09-23T03:34:06.981Z,95188.75
2018-09-23T03:36:35.902Z,95190.05
2018-09-23T03:39:05.862Z,95179.19
2018-09-23T03:41:35.078Z,95182.33
2018-09-23T03:44:04.138Z,95181.83
2018-09-23T03:46:33.015Z,95176.59
2018-09-23T03:49:01.989Z,95179.44
2018-09-23T03:51:30.813Z,95174.19
2018-09-23T03:53:59.582Z,95179.69
2018-09-23T03:56:28.699Z,95173.40
2018-09-23T03:58:57.876Z,95178.94
2018-09-23T04:01:26.852Z,95177.37
2018-09-23T04:03:55.594Z,95185.24
2018-09-23T04:06:24.482Z,95184.98
2018-09-23T04:08:53.494Z,95189.72
2018-09-23T04:11:22.337Z,95197.42
2018-09-23T04:13:51.171Z,95197.14
2018-09-23T04:16:20.066Z,95214.77
2018-09-23T04:18:48.806Z,95206.33
2018-09-23T04:21:17.572Z,95212.66
2018-09-23T04:23:46.482Z,95211.59
2018-09-23T04:26:15.502Z,95214.99
2018-09-23T04:28:44.249Z,95222.61
2018-09-23T04:31:13.059Z,95214.41
2018-09-23T04:33:41.784Z,95215.48
2018-09-23T04:36:10.767Z,95213.62
2018-09-23T04:38:39.775Z,95211.27
2018-09-23T04:41:08.767Z,95216.31
2018-09-23T04:43:37.373Z,95221.87
2018-09-23T04:46:06.486Z,95225.72
2018-09-23T04:48:35.168Z,95227.10
2018-09-23T04:51:03.820Z,95230.27
2018-09-23T04:53:32.719Z,95226.53
2018-09-23T04:56:01.920Z,95228.16
2018-09-23T04:58:30.909Z,95221.05
2018-09-23T05:00:59.838Z,95222.63
2018-09-23T05:03:28.821Z,95230.54
2018-09-23T05:05:57.919Z,95229.27
2018-09-23T05:08:26.559Z,95239.59
2018-09-23T05:10:55.309Z,95245.40
2018-09-23T05:13:24.233Z,95245.92
2018-09-23T05:15:53.176Z,95245.40
2018-09-23T05:18:21.974Z,95246.75
2018-09-23T05:20:50.963Z,95249.38
2018-09-23T05:23:19.983Z,95260.70
2018-09-23T05:25:48.931Z,95257.02
2018-09-23T05:28:17.922Z,95262.02
2018-09-23T05:30:46.888Z,95259.66
2018-09-23T05:33:15.574Z,95260.97
2018-09-23T05:35:44.765Z,95266.78
2018-09-23T05:38:13.546Z,95262.30
2018-09-23T05:40:42.799Z,95265.96
2018-09-23T05:43:11.842Z,95266.48
2018-09-23T05:45:40.607Z,95270.71
2018-09-23T05:48:09.711Z,95261.98
2018-09-23T05:50:38.823Z,95258.50
2018-09-23T05:53:07.567Z,95262.98
2018-09-23T05:55:36.964Z,95268.24
2018-09-23T05:58:06.123Z,95270.88
2018-09-23T06:00:40.268Z,95266.35
2018-09-23T06:03:09.167Z,95270.27
2018-09-23T06:05:38.044Z,95281.58
2018-09-23T06:08:07.127Z,95279.94
2018-09-23T06:10:36.087Z,95284.72
2018-09-23T06:13:04.804Z,95284.30
2018-09-23T06:15:33.659Z,95281.33
2018-09-23T06:18:02.410Z,95278.73
2018-09-23T06:20:31.327Z,95283.91
2018-09-23T06:23:00.420Z,95278.72
2018-09-23T06:25:29.228Z,95287.17
2018-09-23T06:27:58.121Z,95292.59
2018-09-23T06:30:26.756Z,95289.41
2018-09-23T06:32:55.563Z,95295.22
2018-09-23T06:35:24.395Z,95293.92
2018-09-23T06:37:53.329Z,95297.87
2018-09-23T06:40:22.017Z,95295.88
2018-09-23T06:42:50.608Z,95298.57
2018-09-23T06:45:19.455Z,95301.88
2018-09-23T06:47:48.531Z,95295.30
2018-09-23T06:50:17.419Z,95308.80
2018-09-23T06:52:46.551Z,95307.84
2018-09-23T06:55:15.676Z,95309.48
2018-09-23T06:57:50.034Z,95255.53
2018-09-23T07:00:18.938Z,95306.53
2018-09-23T07:02:47.888Z,95305.44
2018-09-23T07:05:16.784Z,95299.89
2018-09-23T07:07:45.930Z,95308.61
2018-09-23T07:10:14.731Z,95312.59
2018-09-23T07:12:43.410Z,95307.91
2018-09-23T07:15:12.094Z,95305.66
2018-09-23T07:17:41.125Z,95300.98
2018-09-23T07:20:09.940Z,95306.22
2018-09-23T07:22:39.092Z,95292.63
2018-09-23T07:25:08.057Z,95295.17
2018-09-23T07:27:37.079Z,95297.11
2018-09-23T07:30:06.369Z,95297.47
2018-09-23T07:32:35.095Z,95307.61
2018-09-23T07:35:04.039Z,95307.90
2018-09-23T07:37:32.963Z,95303.90
2018-09-23T07:40:01.724Z,95295.88
2018-09-23T07:42:30.313Z,95289.38
2018-09-23T07:44:59.018Z,95295.77
2018-09-23T07:47:27.820Z,95294.93
2018-09-23T07:49:56.731Z,95305.02
2018-09-23T07:52:25.494Z,95301.40
2018-09-23T07:54:54.491Z,95298.30
2018-09-23T07:57:23.613Z,95300.05
2018-09-23T07:59:52.812Z,95306.34
2018-09-23T08:02:21.810Z,95303.37
2018-09-23T08:04:50.798Z,95303.16
2018-09-23T08:07:20.031Z,95300.89
2018-09-23T08:09:48.876Z,95302.30
2018-09-23T08:12:17.477Z,95296.41
2018-09-23T08:14:46.691Z,95292.22
2018-09-23T08:17:15.127Z,95297.69
2018-09-23T08:19:44.259Z,95291.19
2018-09-23T08:22:13.071Z,95291.37
2018-09-23T08:24:41.970Z,95291.72
2018-09-23T08:27:10.925Z,95295.08
2018-09-23T08:29:39.853Z,95301.94
2018-09-23T08:32:09.062Z,95294.28
2018-09-23T08:34:37.904Z,95291.61
2018-09-23T08:37:06.906Z,95293.25
2018-09-23T08:39:35.995Z,95286.26
2018-09-23T08:42:04.690Z,95290.52
2018-09-23T08:44:33.679Z,95287.46
2018-09-23T08:47:02.810Z,95281.17
2018-09-23T08:49:31.921Z,95277.61
2018-09-23T08:52:00.897Z,95271.89
2018-09-23T08:54:29.903Z,95272.42
2018-09-23T08:56:58.571Z,95268.75
2018-09-23T08:59:27.380Z,95274.25
2018-09-23T09:01:56.299Z,95270.61
2018-09-23T09:04:25.369Z,95266.66
2018-09-23T09:06:54.590Z,95271.85
2018-09-23T09:09:23.428Z,95266.56
2018-09-23T09:11:52.167Z,95261.91
2018-09-23T09:14:21.276Z,95257.43
2018-09-23T09:16:50.575Z,95260.48
2018-09-23T09:19:19.428Z,95254.63
2018-09-23T09:21:48.329Z,95248.91
2018-09-23T09:24:17.090Z,95245.86
2018-09-23T09:26:46.132Z,95243.17
2018-09-23T09:29:15.161Z,95240.33
2018-09-23T09:31:44.022Z,95242.99
2018-09-23T09:34:13.128Z,95238.59
2018-09-23T09:36:41.866Z,95242.86
2018-09-23T09:39:11.525Z,95246.91
2018-09-23T09:41:40.971Z,95240.41
2018-09-23T09:44:10.183Z,95248.16
2018-09-23T09:46:39.049Z,95236.91
2018-09-23T09:49:07.969Z,95235.06
2018-09-23T09:51:36.725Z,95232.22
2018-09-23T09:54:05.751Z,95235.98
2018-09-23T09:56:34.732Z,95236.78
2018-09-23T09:59:03.648Z,95232.91
2018-09-23T10:01:32.604Z,95235.91
2018-09-23T10:04:01.701Z,95222.09
2018-09-23T10:06:30.509Z,95228.82
2018-09-23T10:08:59.279Z,95220.27
2018-09-23T10:11:28.210Z,95215.00
2018-09-23T10:13:57.002Z,95210.64
2018-09-23T10:16:25.813Z,95206.00
2018-09-23T10:18:54.746Z,95203.70
2018-09-23T10:21:24.067Z,95200.33
2018-09-23T10:23:52.871Z,95196.01
2018-09-23T10:26:21.860Z,95191.95
2018-09-23T10:28:50.507Z,95199.24
2018-09-23T10:31:19.355Z,95197.14
2018-09-23T10:33:48.077Z,95192.63
2018-09-23T10:36:17.213Z,95188.58
2018-09-23T10:38:45.977Z,95188.05
2018-09-23T10:41:14.725Z,95188.40
2018-09-23T10:43:43.599Z,95185.58
2018-09-23T10:46:12.486Z,95183.13
2018-09-23T10:48:41.222Z,95179.33
2018-09-23T10:51:10.316Z,95182.26
2018-09-23T10:53:39.305Z,95177.21
2018-09-23T10:56:08.373Z,95167.83
2018-09-23T10:58:37.285Z,95160.02
2018-09-23T11:01:06.510Z,95159.84
2018-09-23T11:03:35.509Z,95160.35
2018-09-23T11:06:04.204Z,95156.94
2018-09-23T11:08:32.987Z,95154.42
2018-09-23T11:11:01.666Z,95147.86
2018-09-23T11:13:30.607Z,95140.91
2018-09-23T11:15:59.348Z,95140.16
2018-09-23T11:18:28.275Z,95131.91
2018-09-23T11:20:57.002Z,95129.02
2018-09-23T11:23:26.004Z,95129.62
2018-09-23T11:25:54.966Z,95128.08
2018-09-23T11:28:23.851Z,95118.16
2018-09-23T11:30:52.787Z,95120.39
2018-09-23T11:33:21.689Z,95115.52
2018-09-23T11:35:50.404Z,95110.56
2018-09-23T11:38:19.038Z,95110.46
2018-09-23T11:40:47.679Z,95103.71
2018-09-23T11:43:16.546Z,95101.44
2018-09-23T11:45:45.622Z,95100.34
2018-09-23T11:48:14.454Z,95095.03
2018-09-23T11:50:44.324Z,95092.54
2018-09-23T11:53:13.204Z,95086.63
2018-09-23T11:55:42.342Z,95085.79
2018-09-23T11:58:11.689Z,95080.08
2018-09-23T12:00:40.596Z,95081.30
2018-09-23T12:03:09.619Z,95073.48
2018-09-23T12:05:38.486Z,95070.70
2018-09-23T12:08:07.608Z,95066.12
2018-09-23T12:10:36.523Z,95069.73
2018-09-23T12:13:05.292Z,95062.94
2018-09-23T12:15:34.058Z,95063.53
2018-09-23T12:18:02.970Z,95062.96
2018-09-23T12:20:31.633Z,95065.83
2018-09-23T12:23:00.695Z,95051.84
2018-09-23T12:25:29.825Z,95053.25
2018-09-23T12:27:58.472Z,95042.48
2018-09-23T12:30:27.358Z,95043.83
2018-09-23T12:32:56.231Z,95042.27
2018-09-23T12:35:25.047Z,95037.06
2018-09-23T12:37:53.634Z,95028.30
2018-09-23T12:40:22.362Z,95026.98
2018-09-23T12:42:51.272Z,95032.98
2018-09-23T12:45:20.303Z,95024.63
2018-09-23T12:47:49.461Z,95022.53
2018-09-23T12:50:18.816Z,95019.66
2018-09-23T12:52:47.927Z,95018.64
2018-09-23T12:55:17.005Z,95018.32
2018-09-23T12:57:46.019Z,95010.67
2018-09-23T13:00:15.007Z,95016.87
2018-09-23T13:02:43.739Z,95012.66
2018-09-23T13:05:12.667Z,95016.50
2018-09-23T13:07:41.399Z,95016.41
2018-09-23T13:10:10.092Z,95016.12
2018-09-23T13:12:38.932Z,95010.52
2018-09-23T13:15:08.247Z,95012.62
2018-09-23T13:17:37.339Z,95007.75
2018-09-23T13:20:06.853Z,95009.21
2018-09-23T13:22:35.501Z,95011.27
2018-09-23T13:25:04.785Z,95006.45
2018-09-23T13:27:33.551Z,95005.15
2018-09-23T13:30:02.790Z,95003.27
2018-09-23T13:32:31.775Z,94996.31
2018-09-23T13:35:00.477Z,94996.97
2018-09-23T13:37:29.152Z,94991.52
2018-09-23T13:39:57.962Z,94992.81
2018-09-23T13:42:26.917Z,94986.32
2018-09-23T13:44:55.783Z,94992.11
2018-09-23T13:47:24.717Z,94987.82
2018-09-23T13:49:53.965Z,94990.09
2018-09-23T13:52:23.104Z,94991.45
2018-09-23T13:54:52.267Z,94990.65
2018-09-23T13:57:21.193Z,94988.96
2018-09-23T13:59:50.299Z,94987.00
2018-09-23T14:02:19.054Z,94985.46
2018-09-23T14:04:47.683Z,94982.81
2018-09-23T14:07:16.291Z,94984.30
2018-09-23T14:09:45.540Z,94978.95
2018-09-23T14:12:14.519Z,94980.23
2018-09-23T14:14:43.181Z,94969.59
2018-09-23T14:17:12.230Z,94978.11
2018-09-23T14:19:41.329Z,94978.40
2018-09-23T14:22:10.379Z,94974.61
2018-09-23T14:24:39.507Z,94971.97
2018-09-23T14:27:08.383Z,94975.38
2018-09-23T14:29:37.302Z,94970.27
2018-09-23T14:32:06.088Z,94976.09
2018-09-23T14:34:35.156Z,94982.28
2018-09-23T14:37:03.924Z,94976.48
2018-09-23T14:39:33.074Z,94979.95
2018-09-23T14:42:01.812Z,94981.30
2018-09-23T14:44:30.859Z,94980.59
2018-09-23T14:46:59.843Z,94981.67
2018-09-23T14:49:28.966Z,94983.49
2018-09-23T14:51:57.619Z,94983.38
2018-09-23T14:54:26.618Z,94981.72
2018-09-23T14:56:55.290Z,94981.38
2018-09-23T14:59:24.287Z,94982.77
2018-09-23T15:01:53.483Z,94985.68
2018-09-23T15:04:22.230Z,94978.69
2018-09-23T15:06:50.970Z,94984.88
2018-09-23T15:09:19.892Z,94977.55
2018-09-23T15:11:49.166Z,94975.89
2018-09-23T15:14:18.079Z,94990.14
2018-09-23T15:16:47.076Z,94986.08
2018-09-23T15:19:16.046Z,94989.93
2018-09-23T15:21:45.281Z,94988.20
2018-09-23T15:24:14.091Z,94989.23
2018-09-23T15:26:43.073Z,94981.66
2018-09-23T15:29:12.165Z,94982.47
2018-09-23T15:31:40.930Z,94986.58
2018-09-23T15:34:10.103Z,94986.12
2018-09-23T15:36:39.020Z,94986.85
2018-09-23T15:39:08.934Z,94990.20
2018-09-23T15:41:38.250Z,94998.72
2018-09-23T15:44:07.629Z,94991.66
2018-09-23T15:46:36.469Z,94994.13
2018-09-23T15:49:05.474Z,94992.39
2018-09-23T15:51:34.342Z,95001.69
2018-09-23T15:54:03.258Z,95004.27
2018-09-23T15:56:31.958Z,95003.98
2018-09-23T15:59:02.301Z,95004.58
2018-09-23T16:01:31.107Z,95010.13
2018-09-23T16:03:59.820Z,95002.96
2018-09-23T16:06:28.786Z,95009.70
2018-09-23T16:08:57.712Z,95012.47
2018-09-23T16:11:27.083Z,95014.11
2018-09-23T16:13:56.005Z,95010.13
2018-09-23T16:16:24.995Z,95013.66
2018-09-23T16:18:53.927Z,95012.83
2018-09-23T16:21:23.053Z,95023.37
2018-09-23T16:23:52.243Z,95010.83
2018-09-23T16:26:21.265Z,95017.15
2018-09-23T16:28:50.106Z,95019.84
2018-09-23T16:31:18.895Z,95013.43
2018-09-23T16:33:47.653Z,95010.82
2018-09-23T16:36:16.424Z,95010.64
2018-09-23T16:38:45.434Z,95017.85
2018-09-23T16:41:14.104Z,95016.83
2018-09-23T16:43:43.302Z,95014.38
2018-09-23T16:46:12.391Z,95017.31
2018-09-23T16:48:41.461Z,95014.67
2018-09-23T16:51:10.299Z,95011.09
2018-09-23T16:53:39.234Z,95011.84
2018-09-23T16:56:08.299Z,95013.05
2018-09-23T16:58:37.026Z,95015.14
2018-09-23T17:01:05.701Z,95016.63
2018-09-23T17:03:34.345Z,95016.95
2018-09-23T17:06:03.354Z,95021.11
2018-09-23T17:08:32.197Z,95016.60
2018-09-23T17:11:01.133Z,95023.86
2018-09-23T17:13:30.099Z,95023.86
2018-09-23T17:15:58.993Z,95021.77
2018-09-23T17:18:27.814Z,95024.00
2018-09-23T17:20:57.119Z,95030.66
2018-09-23T17:23:25.882Z,95023.11
2018-09-23T17:25:54.913Z,95029.03
2018-09-23T17:28:23.707Z,95029.80
2018-09-23T17:30:52.360Z,95027.58
2018-09-23T17:33:21.302Z,95033.27
2018-09-23T17:35:50.213Z,95038.54
2018-09-23T17:38:18.935Z,95042.17
2018-09-23T17:40:47.913Z,95044.78
2018-09-23T17:43:16.888Z,95043.78
2018-09-23T17:45:45.820Z,95048.13
2018-09-23T17:48:14.894Z,95050.62
2018-09-23T17:50:43.762Z,95053.83
2018-09-23T17:53:12.591Z,95053.52
2018-09-23T17:55:41.381Z,95056.70
2018-09-23T17:58:10.059Z,95057.77
2018-09-23T18:00:42.942Z,95052.83
2018-09-23T18:03:12.740Z,95058.06
2018-09-23T18:05:41.687Z,95055.83
2018-09-23T18:08:11.064Z,95056.92
2018-09-23T18:10:39.837Z,95052.17
2018-09-23T18:13:08.881Z,95050.76
2018-09-23T18:15:37.868Z,95046.77
2018-09-23T18:18:06.830Z,95049.93
2018-09-23T18:20:35.825Z,95046.77
2018-09-23T18:23:04.742Z,95049.94
2018-09-23T18:25:33.667Z,95052.98
2018-09-23T18:28:02.317Z,95051.30
2018-09-23T18:30:31.144Z,95049.53
2018-09-23T18:33:00.551Z,95043.02
2018-09-23T18:35:29.582Z,95044.70
2018-09-23T18:37:58.565Z,95044.45
2018-09-23T18:40:27.552Z,95044.23
2018-09-23T18:42:56.432Z,95043.38
2018-09-23T18:45:25.490Z,95043.52
2018-09-23T18:47:54.223Z,95039.74
2018-09-23T18:50:23.043Z,95047.20
2018-09-23T18:52:57.423Z,95043.83
2018-09-23T18:55:31.209Z,95047.25
2018-09-23T18:58:00.297Z,95039.83
2018-09-23T19:00:29.069Z,95040.88
2018-09-23T19:02:58.316Z,95032.64
2018-09-23T19:05:27.030Z,95035.84
2018-09-23T19:07:55.939Z,95033.30
2018-09-23T19:10:24.907Z,95029.75
2018-09-23T19:12:59.020Z,95030.03
2018-09-23T19:15:27.743Z,95031.56
2018-09-23T19:17:56.691Z,95030.11
2018-09-23T19:20:26.062Z,95029.48
2018-09-23T19:23:00.019Z,95027.97
2018-09-23T19:25:29.097Z,95029.57
2018-09-23T19:27:57.796Z,95030.82
2018-09-23T19:30:26.518Z,95030.22
2018-09-23T19:32:55.405Z,95030.98
2018-09-23T19:35:24.483Z,95026.88
2018-09-23T19:37:53.690Z,95025.30
2018-09-23T19:40:22.558Z,95031.21
2018-09-23T19:42:51.595Z,95028.48
2018-09-23T19:45:20.699Z,95026.63
2018-09-23T19:47:49.791Z,95031.48
2018-09-23T19:50:18.462Z,95037.49
2018-09-23T19:52:47.443Z,95031.27
2018-09-23T19:55:16.226Z,95030.44
2018-09-23T19:57:44.808Z,95026.66
2018-09-23T20:00:13.672Z,95024.84
2018-09-23T20:02:42.430Z,95025.96
2018-09-23T20:05:11.474Z,95028.83
2018-09-23T20:07:40.537Z,95022.48
2018-09-23T20:10:09.514Z,95017.98
2018-09-23T20:12:38.689Z,95016.22
2018-09-23T20:15:12.767Z,95019.31
2018-09-23T20:17:41.616Z,95016.30
2018-09-23T20:20:10.757Z,95016.66
2018-09-23T20:22:39.582Z,95011.78
2018-09-23T20:25:08.319Z,95004.59
2018-09-23T20:27:37.073Z,95008.44
2018-09-23T20:30:06.348Z,95014.83
2018-09-23T20:32:35.368Z,95016.81
2018-09-23T20:35:05.281Z,95010.66
2018-09-23T20:37:34.342Z,95010.99
2018-09-23T20:40:03.460Z,95008.52
2018-09-23T20:42:32.568Z,95009.86
2018-09-23T20:45:02.079Z,95004.16
2018-09-23T20:47:30.804Z,94995.78
2018-09-23T20:49:59.928Z,94990.64
2018-09-23T20:52:28.561Z,94988.89
2018-09-23T20:54:57.300Z,94987.91
2018-09-23T20:57:26.055Z,94985.27
2018-09-23T20:59:54.973Z,94992.34
2018-09-23T21:02:23.736Z,94982.36
2018-09-23T21:04:52.683Z,94980.75
2018-09-23T21:07:21.686Z,94974.05
2018-09-23T21:09:50.448Z,94973.69
2018-09-23T21:12:19.581Z,94976.80
2018-09-23T21:14:48.331Z,94971.80
2018-09-23T21:17:17.103Z,94970.58
2018-09-23T21:19:46.015Z,94973.27
2018-09-23T21:22:14.920Z,94976.45
2018-09-23T21:24:43.569Z,94970.59
2018-09-23T21:27:12.414Z,94977.41
2018-09-23T21:29:41.165Z,94970.87
2018-09-23T21:32:10.218Z,94963.99
2018-09-23T21:34:39.362Z,94959.81
2018-09-23T21:37:08.220Z,94962.04
2018-09-23T21:39:37.341Z,94958.77
2018-09-23T21:42:06.243Z,94957.38
2018-09-23T21:44:35.103Z,94956.92
2018-09-23T21:47:03.994Z,94952.20
2018-09-23T21:49:32.907Z,94946.59
2018-09-23T21:52:01.907Z,94955.05
2018-09-23T21:54:30.571Z,94960.39
2018-09-23T21:56:59.224Z,94958.69
2018-09-23T21:59:28.139Z,94948.13
2018-09-23T22:01:57.042Z,94948.75
2018-09-23T22:04:26.150Z,94937.53
2018-09-23T22:06:54.952Z,94937.84
2018-09-23T22:09:24.002Z,94938.41
2018-09-23T22:11:52.878Z,94932.59
2018-09-23T22:14:21.831Z,94936.36
2018-09-23T22:16:50.760Z,94937.23
2018-09-23T22:19:19.716Z,94931.86
2018-09-23T22:21:48.654Z,94931.16
2018-09-23T22:24:17.440Z,94927.25
2018-09-23T22:26:46.239Z,94928.35
2018-09-23T22:29:15.183Z,94925.35
2018-09-23T22:31:44.260Z,94926.98
2018-09-23T22:34:13.148Z,94908.99
2018-09-23T22:36:42.229Z,94921.03
2018-09-23T22:39:11.030Z,94921.12
2018-09-23T22:41:39.944Z,94905.82
2018-09-23T22:44:08.575Z,94909.64
2018-09-23T22:46:37.452Z,94912.30
2018-09-23T22:49:06.570Z,94905.19
2018-09-23T22:51:35.444Z,94916.86
2018-09-23T22:54:04.154Z,94907.19
2018-09-23T22:56:32.863Z,94898.02
2018-09-23T22:59:01.606Z,94913.95
2018-09-23T23:01:30.664Z,94918.85
2018-09-23T23:03:59.618Z,94904.81
2018-09-23T23:06:28.663Z,94900.80
2018-09-23T23:08:57.639Z,94901.38
2018-09-23T23:11:26.600Z,94902.44
2018-09-23T23:13:55.449Z,94887.34
2018-09-23T23:16:24.379Z,94888.52
2018-09-23T23:18:53.077Z,94900.12
2018-09-23T23:21:21.841Z,94884.92
2018-09-23T23:23:50.476Z,94887.93
2018-09-23T23:26:19.051Z,94884.53
2018-09-23T23:28:47.910Z,94889.15
2018-09-23T23:31:16.998Z,94880.20
2018-09-23T23:33:45.983Z,94879.00
2018-09-23T23:36:14.844Z,94877.78
2018-09-23T23:38:43.575Z,94877.56
2018-09-23T23:41:12.358Z,94875.66
2018-09-23T23:43:41.212Z,94871.16
2018-09-23T23:46:10.374Z,94873.22
2018-09-23T23:48:39.541Z,94867.92
2018-09-23T23:51:08.307Z,94867.92
2018-09-23T23:53:37.031Z,94865.50
2018-09-23T23:56:05.904Z,94858.61
2018-09-23T23:58:35.106Z,94857.83
